createdAt,value
2018-09-18T00:00:23.162Z,55.24
2018-09-18T00:02:52.657Z,55.35
2018-09-18T00:05:22.070Z,55.37
2018-09-18T00:07:51.564Z,55.40
2018-09-18T00:10:21.068Z,55.80
2018-09-18T00:12:50.367Z,55.83
2018-09-18T00:15:19.871Z,55.87
2018-09-18T00:17:49.376Z,56.21
2018-09-18T00:20:18.778Z,55.64
2018-09-18T00:22:48.174Z,55.68
2018-09-18T00:25:17.684Z,55.78
2018-09-18T00:27:47.189Z,56.12
2018-09-18T00:30:16.592Z,56.10
2018-09-18T00:32:46.096Z,55.90
2018-09-18T00:35:15.497Z,56.81
2018-09-18T00:37:45.002Z,56.77
2018-09-18T00:40:14.506Z,57.02
2018-09-18T00:42:43.805Z,57.02
2018-09-18T00:45:13.515Z,56.78
2018-09-18T00:47:43.019Z,56.71
2018-09-18T00:50:12.419Z,56.96
2018-09-18T00:52:41.924Z,56.97
2018-09-18T00:55:11.326Z,56.77
2018-09-18T00:57:40.843Z,56.81
2018-09-18T01:00:10.234Z,56.86
2018-09-18T01:02:39.743Z,56.53
2018-09-18T01:05:09.250Z,56.85
2018-09-18T01:07:38.770Z,57.74
2018-09-18T01:10:08.364Z,57.55
2018-09-18T01:12:37.758Z,57.68
2018-09-18T01:15:07.281Z,57.51
2018-09-18T01:17:36.765Z,57.55
2018-09-18T01:20:06.372Z,57.70
2018-09-18T01:22:35.873Z,57.61
2018-09-18T01:25:05.484Z,58.24
2018-09-18T01:27:34.781Z,57.77
2018-09-18T01:30:04.663Z,58.35
2018-09-18T01:32:34.222Z,58.31
2018-09-18T01:35:03.747Z,58.16
2018-09-18T01:37:33.454Z,57.58
2018-09-18T01:40:03.019Z,57.63
2018-09-18T01:42:32.352Z,58.45
2018-09-18T01:45:01.751Z,58.82
2018-09-18T01:47:31.181Z,58.31
2018-09-18T01:50:00.630Z,58.74
2018-09-18T01:52:30.127Z,58.80
2018-09-18T01:54:59.432Z,58.58
2018-09-18T01:57:28.833Z,58.82
2018-09-18T01:59:58.236Z,58.69
2018-09-18T02:02:27.740Z,58.79
2018-09-18T02:04:57.141Z,58.93
2018-09-18T02:07:26.648Z,59.22
2018-09-18T02:09:56.052Z,59.39
2018-09-18T02:12:25.555Z,59.13
2018-09-18T02:14:54.864Z,59.19
2018-09-18T02:17:24.254Z,58.87
2018-09-18T02:19:53.656Z,58.85
2018-09-18T02:22:23.060Z,59.27
2018-09-18T02:24:52.359Z,59.41
2018-09-18T02:27:21.757Z,59.46
2018-09-18T02:29:51.160Z,58.99
2018-09-18T02:32:20.561Z,59.20
2018-09-18T02:34:49.964Z,59.38
2018-09-18T02:37:19.366Z,59.83
2018-09-18T02:39:48.973Z,59.51
2018-09-18T02:42:18.970Z,60.02
2018-09-18T02:44:48.392Z,59.54
2018-09-18T02:47:18.510Z,59.59
2018-09-18T02:49:48.321Z,59.34
2018-09-18T02:52:17.721Z,60.43
2018-09-18T02:54:47.125Z,60.48
2018-09-18T02:57:16.726Z,60.02
2018-09-18T02:59:46.132Z,60.15
2018-09-18T03:02:15.543Z,59.96
2018-09-18T03:04:44.936Z,60.22
2018-09-18T03:07:14.335Z,60.86
2018-09-18T03:09:43.741Z,60.39
2018-09-18T03:12:13.143Z,61.18
2018-09-18T03:14:42.443Z,61.00
2018-09-18T03:17:11.846Z,60.54
2018-09-18T03:19:41.246Z,60.29
2018-09-18T03:22:10.649Z,60.59
2018-09-18T03:24:39.949Z,61.08
2018-09-18T03:27:09.349Z,60.61
2018-09-18T03:29:38.753Z,60.52
2018-09-18T03:32:08.154Z,60.47
2018-09-18T03:34:37.457Z,61.11
2018-09-18T03:37:06.783Z,61.16
2018-09-18T03:39:36.156Z,61.44
2018-09-18T03:42:05.615Z,61.10
2018-09-18T03:44:35.164Z,61.52
2018-09-18T03:47:04.655Z,61.46
2018-09-18T03:49:34.070Z,60.85
2018-09-18T03:52:03.526Z,60.37
2018-09-18T03:54:32.976Z,61.26
2018-09-18T03:57:02.480Z,61.01
2018-09-18T03:59:31.985Z,61.21
2018-09-18T04:02:01.489Z,62.63
2018-09-18T04:04:30.891Z,62.09
2018-09-18T04:07:00.498Z,61.57
2018-09-18T04:09:29.900Z,61.23
2018-09-18T04:11:59.302Z,61.79
2018-09-18T04:14:28.708Z,61.72
2018-09-18T04:16:58.208Z,61.46
2018-09-18T04:19:27.610Z,62.16
2018-09-18T04:21:57.113Z,62.29
2018-09-18T04:24:26.516Z,62.35
2018-09-18T04:26:55.918Z,62.09
2018-09-18T04:29:25.429Z,62.25
2018-09-18T04:31:54.926Z,62.21
2018-09-18T04:34:24.328Z,62.72
2018-09-18T04:36:53.630Z,62.17
2018-09-18T04:39:23.104Z,61.70
2018-09-18T04:41:52.534Z,61.82
2018-09-18T04:44:22.041Z,62.11
2018-09-18T04:46:51.543Z,62.20
2018-09-18T04:49:21.039Z,62.68
2018-09-18T04:51:50.453Z,63.21
2018-09-18T04:54:19.851Z,62.88
2018-09-18T04:56:49.253Z,62.58
2018-09-18T04:59:18.859Z,62.78
2018-09-18T05:01:48.262Z,63.27
2018-09-18T05:04:17.662Z,62.54
2018-09-18T05:06:47.065Z,62.41
2018-09-18T05:09:16.532Z,62.17
2018-09-18T05:11:46.111Z,61.99
2018-09-18T05:14:15.649Z,62.19
2018-09-18T05:16:45.338Z,62.14
2018-09-18T05:19:14.893Z,62.12
2018-09-18T05:21:44.706Z,62.47
2018-09-18T05:24:14.208Z,62.96
2018-09-18T05:26:43.816Z,62.89
2018-09-18T05:29:13.628Z,63.86
2018-09-18T05:31:43.031Z,63.88
2018-09-18T05:34:12.433Z,63.32
2018-09-18T05:36:41.935Z,63.20
2018-09-18T05:39:12.453Z,62.76
2018-09-18T05:41:41.795Z,62.37
2018-09-18T05:44:16.803Z,62.70
2018-09-18T05:46:46.321Z,62.00
2018-09-18T05:49:15.910Z,60.46
2018-09-18T05:51:45.516Z,59.53
2018-09-18T05:54:14.817Z,60.25
2018-09-18T05:56:44.726Z,60.46
2018-09-18T05:59:14.027Z,60.74
2018-09-18T06:01:43.431Z,61.13
2018-09-18T06:04:12.931Z,61.46
2018-09-18T06:06:42.339Z,62.17
2018-09-18T06:09:12.761Z,62.27
2018-09-18T06:11:42.140Z,61.46
2018-09-18T06:14:11.811Z,62.12
2018-09-18T06:16:41.279Z,61.68
2018-09-18T06:19:10.708Z,61.37
2018-09-18T06:21:40.078Z,61.11
2018-09-18T06:24:09.594Z,61.76
2018-09-18T06:26:39.086Z,61.06
2018-09-18T06:29:08.692Z,60.72
2018-09-18T06:31:38.095Z,60.02
2018-09-18T06:34:07.700Z,59.35
2018-09-18T06:36:37.205Z,58.44
2018-09-18T06:39:08.852Z,57.28
2018-09-18T06:41:38.569Z,57.19
2018-09-18T06:44:08.074Z,56.87
2018-09-18T06:46:37.782Z,56.38
2018-09-18T06:49:07.287Z,56.94
2018-09-18T06:51:36.790Z,57.18
2018-09-18T06:54:06.126Z,57.21
2018-09-18T06:56:35.697Z,56.76
2018-09-18T06:59:05.304Z,56.81
2018-09-18T07:01:34.811Z,56.58
2018-09-18T07:04:04.210Z,57.11
2018-09-18T07:06:33.624Z,56.67
2018-09-18T07:09:03.127Z,56.76
2018-09-18T07:11:32.519Z,55.65
2018-09-18T07:14:02.022Z,55.84
2018-09-18T07:16:31.424Z,56.30
2018-09-18T07:19:00.990Z,55.44
2018-09-18T07:21:30.433Z,55.71
2018-09-18T07:23:59.951Z,55.72
2018-09-18T07:26:29.517Z,55.22
2018-09-18T07:28:58.862Z,54.84
2018-09-18T07:31:28.243Z,54.38
2018-09-18T07:33:57.759Z,54.13
2018-09-18T07:36:27.149Z,53.43
2018-09-18T07:38:56.758Z,53.34
2018-09-18T07:41:26.310Z,53.07
2018-09-18T07:43:55.664Z,52.19
2018-09-18T07:46:25.079Z,52.19
2018-09-18T07:48:58.664Z,50.56
2018-09-18T07:51:28.067Z,49.79
2018-09-18T07:53:57.776Z,48.81
2018-09-18T07:56:27.440Z,48.43
2018-09-18T07:58:56.888Z,48.46
2018-09-18T08:01:26.291Z,47.81
2018-09-18T08:03:55.999Z,46.88
2018-09-18T08:06:25.809Z,47.02
2018-09-18T08:08:55.322Z,45.80
2018-09-18T08:11:24.716Z,45.46
2018-09-18T08:13:54.120Z,46.03
2018-09-18T08:16:23.519Z,45.78
2018-09-18T08:18:52.997Z,44.97
2018-09-18T08:21:22.326Z,44.71
2018-09-18T08:23:51.739Z,44.28
2018-09-18T08:26:21.193Z,44.28
2018-09-18T08:28:50.633Z,44.16
2018-09-18T08:31:20.363Z,43.62
2018-09-18T08:33:49.847Z,43.16
2018-09-18T08:36:19.301Z,44.90
2018-09-18T08:38:48.956Z,42.80
2018-09-18T08:41:18.466Z,41.05
2018-09-18T08:43:48.171Z,39.03
2018-09-18T08:46:17.851Z,39.70
2018-09-18T08:48:52.687Z,37.81
2018-09-18T08:51:22.008Z,38.44
2018-09-18T08:53:51.667Z,36.29
2018-09-18T08:56:21.034Z,37.33
2018-09-18T08:58:50.853Z,36.20
2018-09-18T09:01:20.536Z,34.23
2018-09-18T09:03:50.191Z,33.91
2018-09-18T09:06:19.867Z,34.18
2018-09-18T09:08:49.264Z,34.47
2018-09-18T09:11:18.710Z,33.57
2018-09-18T09:13:48.384Z,32.77
2018-09-18T09:16:17.763Z,31.89
2018-09-18T09:18:47.196Z,31.10
2018-09-18T09:21:16.684Z,30.50
2018-09-18T09:23:45.869Z,31.21
2018-09-18T09:26:15.408Z,29.58
2018-09-18T09:28:44.999Z,29.67
2018-09-18T09:31:14.490Z,29.54
2018-09-18T09:33:44.021Z,29.10
2018-09-18T09:36:13.472Z,28.92
2018-09-18T09:38:43.108Z,29.44
2018-09-18T09:41:12.708Z,28.97
2018-09-18T09:43:42.335Z,28.98
2018-09-18T09:46:11.868Z,28.73
2018-09-18T09:48:41.219Z,29.07
2018-09-18T09:51:10.801Z,28.09
2018-09-18T09:53:40.333Z,27.90
2018-09-18T09:56:09.632Z,27.71
2018-09-18T09:58:39.032Z,27.88
2018-09-18T10:01:13.875Z,26.94
2018-09-18T10:03:43.265Z,27.76
2018-09-18T10:06:12.872Z,28.33
2018-09-18T10:08:42.376Z,28.48
2018-09-18T10:11:11.779Z,27.54
2018-09-18T10:13:41.202Z,27.86
2018-09-18T10:16:10.670Z,26.29
2018-09-18T10:18:40.014Z,25.94
2018-09-18T10:21:09.475Z,26.59
2018-09-18T10:23:38.893Z,26.08
2018-09-18T10:26:08.401Z,25.94
2018-09-18T10:28:37.797Z,26.36
2018-09-18T10:31:07.323Z,26.21
2018-09-18T10:33:36.907Z,26.26
2018-09-18T10:36:06.573Z,25.88
2018-09-18T10:38:35.924Z,25.93
2018-09-18T10:41:05.596Z,26.00
2018-09-18T10:43:35.032Z,25.66
2018-09-18T10:46:04.532Z,25.05
2018-09-18T10:48:38.240Z,25.89
2018-09-18T10:51:07.643Z,26.26
2018-09-18T10:53:37.244Z,26.35
2018-09-18T10:56:06.748Z,25.78
2018-09-18T10:58:36.151Z,26.27
2018-09-18T11:01:05.757Z,25.95
2018-09-18T11:03:35.162Z,25.80
2018-09-18T11:06:05.585Z,25.49
2018-09-18T11:08:35.601Z,26.17
2018-09-18T11:11:05.177Z,26.13
2018-09-18T11:13:34.658Z,25.79
2018-09-18T11:16:04.404Z,25.78
2018-09-18T11:18:33.639Z,25.83
2018-09-18T11:21:03.143Z,25.88
2018-09-18T11:23:32.708Z,26.09
2018-09-18T11:26:02.132Z,25.80
2018-09-18T11:28:31.643Z,25.50
2018-09-18T11:31:01.037Z,26.14
2018-09-18T11:33:30.336Z,25.95
2018-09-18T11:35:59.738Z,26.43
2018-09-18T11:38:29.038Z,26.09
2018-09-18T11:40:58.443Z,25.43
2018-09-18T11:43:27.953Z,25.57
2018-09-18T11:45:57.753Z,25.21
2018-09-18T11:48:26.958Z,24.95
2018-09-18T11:50:56.363Z,25.35
2018-09-18T11:53:25.980Z,24.04
2018-09-18T11:55:55.390Z,24.29
2018-09-18T11:58:25.021Z,24.92
2018-09-18T12:00:54.540Z,25.47
2018-09-18T12:03:23.878Z,24.68
2018-09-18T12:05:53.294Z,24.43
2018-09-18T12:08:22.682Z,24.04
2018-09-18T12:10:52.083Z,24.23
2018-09-18T12:13:21.487Z,23.59
2018-09-18T12:15:50.784Z,23.78
2018-09-18T12:18:20.191Z,24.54
2018-09-18T12:20:49.590Z,24.22
2018-09-18T12:23:18.991Z,24.39
2018-09-18T12:25:48.395Z,24.04
2018-09-18T12:28:17.780Z,24.07
2018-09-18T12:30:47.303Z,22.43
2018-09-18T12:33:16.703Z,23.25
2018-09-18T12:35:46.244Z,22.99
2018-09-18T12:38:15.714Z,22.12
2018-09-18T12:40:45.231Z,21.83
2018-09-18T12:43:14.619Z,22.37
2018-09-18T12:45:44.329Z,21.66
2018-09-18T12:48:13.834Z,21.13
2018-09-18T12:50:43.451Z,20.91
2018-09-18T12:53:12.943Z,21.74
2018-09-18T12:55:42.343Z,21.87
2018-09-18T12:58:11.755Z,21.92
2018-09-18T13:00:41.257Z,21.10
2018-09-18T13:03:10.756Z,21.24
2018-09-18T13:05:40.261Z,21.07
2018-09-18T13:08:09.760Z,20.34
2018-09-18T13:10:39.168Z,21.53
2018-09-18T13:13:08.470Z,20.77
2018-09-18T13:15:37.878Z,20.96
2018-09-18T13:18:07.223Z,21.35
2018-09-18T13:20:36.798Z,21.38
2018-09-18T13:23:06.467Z,21.90
2018-09-18T13:25:35.888Z,21.32
2018-09-18T13:28:05.291Z,21.52
2018-09-18T13:30:34.843Z,21.05
2018-09-18T13:33:04.298Z,21.21
2018-09-18T13:35:33.802Z,20.68
2018-09-18T13:38:03.410Z,21.42
2018-09-18T13:40:32.807Z,21.34
2018-09-18T13:43:02.316Z,21.27
2018-09-18T13:45:31.823Z,21.50
2018-09-18T13:48:01.431Z,21.62
2018-09-18T13:50:31.018Z,20.97
2018-09-18T13:53:00.538Z,21.54
2018-09-18T13:55:29.972Z,21.35
2018-09-18T13:57:59.382Z,21.16
2018-09-18T14:00:28.858Z,20.73
2018-09-18T14:02:58.748Z,21.34
2018-09-18T14:05:28.271Z,21.21
2018-09-18T14:07:57.770Z,21.68
2018-09-18T14:10:27.388Z,21.50
2018-09-18T14:12:56.953Z,21.96
2018-09-18T14:15:26.620Z,22.36
2018-09-18T14:17:55.993Z,22.27
2018-09-18T14:20:26.783Z,22.00
2018-09-18T14:22:56.127Z,22.51
2018-09-18T14:25:25.531Z,22.44
2018-09-18T14:27:54.828Z,22.53
2018-09-18T14:30:24.334Z,22.26
2018-09-18T14:32:53.736Z,22.52
2018-09-18T14:35:23.548Z,22.40
2018-09-18T14:37:53.383Z,23.45
2018-09-18T14:40:22.822Z,24.28
2018-09-18T14:42:52.164Z,24.12
2018-09-18T14:45:21.502Z,24.06
2018-09-18T14:47:50.915Z,24.31
2018-09-18T14:50:20.282Z,24.13
2018-09-18T14:52:49.669Z,23.25
2018-09-18T14:55:18.967Z,23.73
2018-09-18T14:57:48.369Z,23.55
2018-09-18T15:00:17.815Z,23.76
2018-09-18T15:02:47.276Z,23.78
2018-09-18T15:05:16.677Z,24.23
2018-09-18T15:07:46.080Z,24.28
2018-09-18T15:10:15.649Z,24.50
2018-09-18T15:12:45.164Z,24.68
2018-09-18T15:15:14.682Z,24.43
2018-09-18T15:17:43.996Z,24.49
2018-09-18T15:20:13.502Z,24.19
2018-09-18T15:22:43.006Z,24.28
2018-09-18T15:25:12.531Z,24.66
2018-09-18T15:27:41.971Z,24.92
2018-09-18T15:30:11.418Z,24.93
2018-09-18T15:32:40.861Z,24.95
2018-09-18T15:35:10.247Z,24.50
2018-09-18T15:37:39.624Z,24.83
2018-09-18T15:40:09.320Z,25.60
2018-09-18T15:42:38.737Z,25.26
2018-09-18T15:45:08.137Z,25.97
2018-09-18T15:47:37.541Z,25.78
2018-09-18T15:50:07.247Z,26.02
2018-09-18T15:52:36.648Z,25.71
2018-09-18T15:55:06.153Z,25.74
2018-09-18T15:57:35.467Z,26.00
2018-09-18T16:00:05.061Z,25.31
2018-09-18T16:02:34.567Z,26.07
2018-09-18T16:05:04.173Z,25.46
2018-09-18T16:07:33.580Z,25.91
2018-09-18T16:10:03.081Z,25.68
2018-09-18T16:12:32.581Z,26.19
2018-09-18T16:15:01.996Z,26.52
2018-09-18T16:17:31.517Z,26.68
2018-09-18T16:20:01.201Z,26.53
2018-09-18T16:22:30.652Z,27.08
2018-09-18T16:25:00.108Z,27.43
2018-09-18T16:27:29.680Z,27.98
2018-09-18T16:29:59.117Z,27.21
2018-09-18T16:32:28.818Z,27.62
2018-09-18T16:34:58.234Z,27.75
2018-09-18T16:37:27.748Z,27.69
2018-09-18T16:39:57.515Z,27.91
2018-09-18T16:42:26.992Z,27.99
2018-09-18T16:44:56.450Z,27.60
2018-09-18T16:47:25.955Z,28.46
2018-09-18T16:49:55.666Z,28.32
2018-09-18T16:52:25.067Z,28.34
2018-09-18T16:54:54.654Z,28.04
2018-09-18T16:57:24.072Z,29.00
2018-09-18T16:59:53.428Z,28.77
2018-09-18T17:02:23.017Z,28.42
2018-09-18T17:04:52.484Z,29.03
2018-09-18T17:07:21.787Z,29.60
2018-09-18T17:09:51.293Z,30.11
2018-09-18T17:12:21.072Z,29.95
2018-09-18T17:14:50.508Z,30.23
2018-09-18T17:17:20.223Z,30.31
2018-09-18T17:19:49.831Z,31.05
2018-09-18T17:22:19.233Z,30.96
2018-09-18T17:24:49.679Z,31.70
2018-09-18T17:27:19.356Z,33.03
2018-09-18T17:29:48.956Z,33.44
2018-09-18T17:32:18.775Z,34.05
2018-09-18T17:34:48.482Z,34.23
2018-09-18T17:37:18.059Z,34.43
2018-09-18T17:39:47.718Z,35.13
2018-09-18T17:42:17.465Z,36.09
2018-09-18T17:44:47.217Z,35.83
2018-09-18T17:47:16.550Z,36.31
2018-09-18T17:49:45.923Z,36.98
2018-09-18T17:52:15.734Z,37.35
2018-09-18T17:54:45.252Z,37.46
2018-09-18T17:57:14.845Z,37.63
2018-09-18T17:59:44.521Z,38.45
2018-09-18T18:02:15.185Z,38.42
2018-09-18T18:04:44.803Z,39.09
2018-09-18T18:07:14.296Z,38.70
2018-09-18T18:09:45.110Z,39.04
2018-09-18T18:12:14.635Z,39.32
2018-09-18T18:14:44.148Z,39.24
2018-09-18T18:17:13.542Z,39.58
2018-09-18T18:19:43.046Z,39.27
2018-09-18T18:22:12.671Z,39.40
2018-09-18T18:24:42.159Z,40.32
2018-09-18T18:27:11.765Z,39.77
2018-09-18T18:29:41.342Z,40.08
2018-09-18T18:32:10.982Z,40.02
2018-09-18T18:34:41.115Z,40.33
2018-09-18T18:37:11.031Z,40.07
2018-09-18T18:39:40.684Z,40.04
2018-09-18T18:42:10.125Z,40.56
2018-09-18T18:44:39.731Z,41.08
2018-09-18T18:47:09.261Z,40.52
2018-09-18T18:49:39.645Z,40.64
2018-09-18T18:52:09.168Z,41.22
2018-09-18T18:54:38.824Z,41.00
2018-09-18T18:57:08.275Z,40.96
2018-09-18T18:59:37.884Z,40.77
2018-09-18T19:02:07.551Z,41.62
2018-09-18T19:04:37.091Z,40.98
2018-09-18T19:07:06.655Z,41.62
2018-09-18T19:09:36.309Z,41.62
2018-09-18T19:12:05.928Z,40.66
2018-09-18T19:14:35.272Z,40.72
2018-09-18T19:17:04.738Z,41.73
2018-09-18T19:19:34.327Z,41.09
2018-09-18T19:22:03.954Z,41.35
2018-09-18T19:24:33.801Z,42.13
2018-09-18T19:27:03.454Z,41.93
2018-09-18T19:29:32.905Z,42.43
2018-09-18T19:32:02.166Z,42.65
2018-09-18T19:34:31.518Z,42.74
2018-09-18T19:37:01.065Z,42.79
2018-09-18T19:39:30.727Z,43.14
2018-09-18T19:42:00.169Z,43.08
2018-09-18T19:44:29.786Z,42.34
2018-09-18T19:47:00.387Z,42.60
2018-09-18T19:49:29.935Z,41.53
2018-09-18T19:51:59.423Z,41.88
2018-09-18T19:54:28.925Z,42.37
2018-09-18T19:56:58.533Z,41.80
2018-09-18T19:59:27.991Z,42.26
2018-09-18T20:01:57.439Z,42.45
2018-09-18T20:04:26.883Z,42.44
2018-09-18T20:06:56.450Z,41.68
2018-09-18T20:09:26.190Z,41.15
2018-09-18T20:11:55.562Z,40.14
2018-09-18T20:14:25.064Z,40.05
2018-09-18T20:16:54.467Z,39.96
2018-09-18T20:19:24.074Z,39.93
2018-09-18T20:21:53.596Z,40.05
2018-09-18T20:24:23.184Z,39.90
2018-09-18T20:26:52.595Z,40.41
2018-09-18T20:29:22.160Z,40.13
2018-09-18T20:31:51.756Z,39.87
2018-09-18T20:34:21.202Z,40.83
2018-09-18T20:36:50.610Z,40.75
2018-09-18T20:39:20.009Z,41.27
2018-09-18T20:41:49.468Z,41.51
2018-09-18T20:44:18.913Z,41.75
2018-09-18T20:46:48.314Z,42.01
2018-09-18T20:49:18.049Z,43.08
2018-09-18T20:51:47.629Z,42.97
2018-09-18T20:54:17.136Z,42.94
2018-09-18T20:56:46.639Z,43.66
2018-09-18T20:59:16.147Z,43.60
2018-09-18T21:01:45.669Z,43.03
2018-09-18T21:04:15.154Z,43.52
2018-09-18T21:06:44.578Z,43.37
2018-09-18T21:09:14.367Z,44.13
2018-09-18T21:11:43.870Z,44.26
2018-09-18T21:14:13.461Z,44.75
2018-09-18T21:16:43.817Z,45.35
2018-09-18T21:19:13.206Z,45.33
2018-09-18T21:21:42.709Z,45.98
2018-09-18T21:24:12.212Z,46.18
2018-09-18T21:26:41.716Z,46.32
2018-09-18T21:29:11.223Z,46.09
2018-09-18T21:31:40.636Z,46.84
2018-09-18T21:34:10.269Z,46.33
2018-09-18T21:36:39.834Z,46.93
2018-09-18T21:39:10.558Z,46.99
2018-09-18T21:41:40.074Z,46.66
2018-09-18T21:44:09.473Z,46.63
2018-09-18T21:46:38.879Z,46.84
2018-09-18T21:49:08.461Z,46.79
2018-09-18T21:51:38.097Z,46.62
2018-09-18T21:54:07.596Z,47.03
2018-09-18T21:56:37.101Z,47.19
2018-09-18T21:59:06.709Z,47.55
2018-09-18T22:01:36.472Z,47.44
2018-09-18T22:04:05.920Z,47.14
2018-09-18T22:06:35.429Z,47.80
2018-09-18T22:09:05.258Z,46.73
2018-09-18T22:11:34.742Z,46.66
2018-09-18T22:14:04.245Z,47.84
2018-09-18T22:16:33.855Z,48.47
2018-09-18T22:19:03.264Z,49.04
2018-09-18T22:21:32.862Z,48.84
2018-09-18T22:24:02.573Z,48.57
2018-09-18T22:26:32.178Z,47.88
2018-09-18T22:29:01.785Z,48.27
2018-09-18T22:31:31.287Z,48.31
2018-09-18T22:34:00.793Z,48.05
2018-09-18T22:36:30.610Z,48.22
2018-09-18T22:39:00.072Z,48.01
2018-09-18T22:41:29.718Z,48.00
2018-09-18T22:43:59.323Z,47.85
2018-09-18T22:46:28.821Z,47.40
2018-09-18T22:48:58.437Z,47.04
2018-09-18T22:51:28.371Z,47.76
2018-09-18T22:53:57.963Z,47.28
2018-09-18T22:56:27.739Z,47.07
2018-09-18T22:58:57.179Z,47.60
2018-09-18T23:01:26.577Z,47.72
2018-09-18T23:03:57.100Z,47.35
2018-09-18T23:06:26.708Z,47.68
2018-09-18T23:08:56.106Z,47.99
2018-09-18T23:11:25.716Z,48.40
2018-09-18T23:13:55.323Z,47.79
2018-09-18T23:16:24.829Z,48.21
2018-09-18T23:18:54.379Z,48.64
2018-09-18T23:21:23.735Z,48.83
2018-09-18T23:23:53.341Z,48.47
2018-09-18T23:26:22.948Z,48.83
2018-09-18T23:28:52.450Z,48.40
2018-09-18T23:31:21.919Z,48.45
2018-09-18T23:33:51.151Z,49.04
2018-09-18T23:36:20.739Z,48.90
2018-09-18T23:38:50.161Z,48.99
2018-09-18T23:41:19.664Z,49.08
2018-09-18T23:43:49.125Z,49.32
2018-09-18T23:46:18.574Z,49.14
2018-09-18T23:48:48.174Z,49.52
2018-09-18T23:51:17.786Z,49.00
2018-09-18T23:53:47.177Z,49.40
2018-09-18T23:56:16.796Z,49.79
2018-09-18T23:58:46.402Z,49.56
